PGUM/GUM METAR and TAF weather

Enter ICAO airport designator
Station Type Date Time Source
PGUM METAR 2022/01/26 12:54 UTC NOAA

PGUM 261254Z COR 08010KT 10SM CLR 26/23 A2993 RMK A02 SLP127 T02610228 $


Station Type Date Time Source
PGUM Decoded METAR 2022/01/26 12:54 UTC NOAA

Agana, Guam International Airport, GU, United States (PGUM) 13-29N 144-48E
Jan 26, 2022 - 07:54 AM EST / 2022.01.26 1254 UTC
Wind: from the E (080 degrees) at 12 MPH (10 KT):0
Visibility: 10 mile(s):0
Sky conditions: clear
Temperature: 79.0 F (26.1 C)
Dew Point: 73.0 F (22.8 C)
Relative Humidity: 82%
Pressure (altimeter): 29.93 in. Hg (1013 hPa)
ob: PGUM 261254Z COR 08010KT 10SM CLR 26/23 A2993 RMK A02 SLP127 T02610228
cycle: 13

Station Type Date Time Source
PGUM TAF 2022/01/26 12:27 UTC NOAA

TAF PGUM 261122Z 2612/2718 06010KT P6SM VCSH FEW020

Example: see airport list